sensor_id;sensor_type;location;lat;lon;timestamp;P1;durP1;ratioP1;P2;durP2;ratioP2
69523;SDS011;56723;42.694;23.286;2023-05-07T07:36:05;11.30;;;7.32;;
69523;SDS011;56723;42.694;23.286;2023-05-07T07:41:02;11.13;;;7.17;;
69523;SDS011;56723;42.694;23.286;2023-05-07T07:43:29;12.20;;;7.93;;
69523;SDS011;56723;42.694;23.286;2023-05-07T07:45:57;10.13;;;7.70;;
69523;SDS011;56723;42.694;23.286;2023-05-07T07:48:25;11.20;;;6.68;;
69523;SDS011;56723;42.694;23.286;2023-05-07T07:50:52;10.48;;;7.47;;
69523;SDS011;56723;42.694;23.286;2023-05-07T07:53:20;9.95;;;7.53;;
69523;SDS011;56723;42.694;23.286;2023-05-07T07:55:47;10.50;;;7.45;;
69523;SDS011;56723;42.694;23.286;2023-05-07T07:58:18;10.13;;;8.15;;
69523;SDS011;56723;42.694;23.286;2023-05-07T08:00:48;11.50;;;8.57;;
69523;SDS011;56723;42.694;23.286;2023-05-07T08:03:16;11.10;;;8.55;;
69523;SDS011;56723;42.694;23.286;2023-05-07T08:05:48;11.90;;;7.53;;
69523;SDS011;56723;42.694;23.286;2023-05-07T08:08:17;7.97;;;7.18;;
69523;SDS011;56723;42.694;23.286;2023-05-07T08:10:45;8.60;;;7.28;;
69523;SDS011;56723;42.694;23.286;2023-05-07T08:13:20;11.02;;;7.55;;
69523;SDS011;56723;42.694;23.286;2023-05-07T08:15:47;8.85;;;7.82;;
69523;SDS011;56723;42.694;23.286;2023-05-07T08:18:15;9.77;;;7.93;;
69523;SDS011;56723;42.694;23.286;2023-05-07T08:20:46;9.90;;;7.22;;
69523;SDS011;56723;42.694;23.286;2023-05-07T08:23:17;10.27;;;6.72;;
69523;SDS011;56723;42.694;23.286;2023-05-07T08:25:45;10.00;;;7.22;;
69523;SDS011;56723;42.694;23.286;2023-05-07T08:28:14;8.00;;;7.03;;
69523;SDS011;56723;42.694;23.286;2023-05-07T08:30:41;8.85;;;6.22;;
69523;SDS011;56723;42.694;23.286;2023-05-07T08:33:08;7.85;;;5.47;;
69523;SDS011;56723;42.694;23.286;2023-05-07T08:35:36;7.70;;;6.28;;
69523;SDS011;56723;42.694;23.286;2023-05-07T08:38:04;11.50;;;5.55;;
69523;SDS011;56723;42.694;23.286;2023-05-07T08:40:33;11.52;;;6.72;;
69523;SDS011;56723;42.694;23.286;2023-05-07T08:43:14;7.95;;;5.40;;
69523;SDS011;56723;42.694;23.286;2023-05-07T08:45:42;7.93;;;5.47;;
69523;SDS011;56723;42.694;23.286;2023-05-07T08:48:15;5.45;;;4.68;;
69523;SDS011;56723;42.694;23.286;2023-05-07T08:50:50;6.43;;;5.80;;
69523;SDS011;56723;42.694;23.286;2023-05-07T08:53:18;7.30;;;6.05;;
69523;SDS011;56723;42.694;23.286;2023-05-07T08:55:48;6.20;;;5.55;;
69523;SDS011;56723;42.694;23.286;2023-05-07T08:58:16;7.10;;;5.13;;
69523;SDS011;56723;42.694;23.286;2023-05-07T09:00:43;5.30;;;3.95;;
69523;SDS011;56723;42.694;23.286;2023-05-07T09:03:11;6.40;;;4.00;;
69523;SDS011;56723;42.694;23.286;2023-05-07T09:05:43;8.35;;;4.95;;
69523;SDS011;56723;42.694;23.286;2023-05-07T09:08:14;6.07;;;5.05;;
69523;SDS011;56723;42.694;23.286;2023-05-07T09:10:44;7.35;;;5.07;;
69523;SDS011;56723;42.694;23.286;2023-05-07T09:13:12;5.28;;;4.78;;
69523;SDS011;56723;42.694;23.286;2023-05-07T09:15:42;4.55;;;4.07;;
69523;SDS011;56723;42.694;23.286;2023-05-07T09:18:09;4.95;;;4.45;;
69523;SDS011;56723;42.694;23.286;2023-05-07T09:20:38;7.40;;;3.60;;
69523;SDS011;56723;42.694;23.286;2023-05-07T09:23:07;6.20;;;4.00;;
69523;SDS011;56723;42.694;23.286;2023-05-07T09:25:36;4.50;;;3.88;;
69523;SDS011;56723;42.694;23.286;2023-05-07T09:28:10;6.50;;;3.67;;
69523;SDS011;56723;42.694;23.286;2023-05-07T09:30:37;4.15;;;3.38;;
69523;SDS011;56723;42.694;23.286;2023-05-07T09:33:07;3.75;;;3.35;;
69523;SDS011;56723;42.694;23.286;2023-05-07T09:35:38;5.85;;;3.30;;
69523;SDS011;56723;42.694;23.286;2023-05-07T09:38:11;4.50;;;3.45;;
69523;SDS011;56723;42.694;23.286;2023-05-07T09:40:39;6.22;;;3.13;;
69523;SDS011;56723;42.694;23.286;2023-05-07T09:43:11;4.00;;;2.97;;
69523;SDS011;56723;42.694;23.286;2023-05-07T09:45:50;5.82;;;2.97;;
69523;SDS011;56723;42.694;23.286;2023-05-07T09:48:21;3.40;;;2.58;;
69523;SDS011;56723;42.694;23.286;2023-05-07T09:50:52;4.15;;;2.88;;
69523;SDS011;56723;42.694;23.286;2023-05-07T09:53:29;2.95;;;2.63;;
69523;SDS011;56723;42.694;23.286;2023-05-07T09:55:59;3.15;;;2.60;;
69523;SDS011;56723;42.694;23.286;2023-05-07T09:58:30;3.42;;;2.40;;
69523;SDS011;56723;42.694;23.286;2023-05-07T10:00:59;5.05;;;3.38;;
69523;SDS011;56723;42.694;23.286;2023-05-07T10:03:28;2.47;;;2.15;;
69523;SDS011;56723;42.694;23.286;2023-05-07T10:06:03;1.80;;;1.70;;
69523;SDS011;56723;42.694;23.286;2023-05-07T10:08:31;5.60;;;2.05;;
69523;SDS011;56723;42.694;23.286;2023-05-07T10:11:01;2.25;;;1.60;;
69523;SDS011;56723;42.694;23.286;2023-05-07T10:13:29;2.60;;;1.70;;
69523;SDS011;56723;42.694;23.286;2023-05-07T10:15:58;5.22;;;1.45;;
69523;SDS011;56723;42.694;23.286;2023-05-07T10:18:32;2.88;;;1.20;;
69523;SDS011;56723;42.694;23.286;2023-05-07T10:21:18;3.95;;;2.28;;
69523;SDS011;56723;42.694;23.286;2023-05-07T10:24:13;3.58;;;1.60;;
69523;SDS011;56723;42.694;23.286;2023-05-07T10:26:48;3.60;;;1.40;;
69523;SDS011;56723;42.694;23.286;2023-05-07T10:29:29;3.28;;;1.50;;
69523;SDS011;56723;42.694;23.286;2023-05-07T10:32:12;2.83;;;1.48;;
69523;SDS011;56723;42.694;23.286;2023-05-07T10:34:57;1.40;;;0.60;;
69523;SDS011;56723;42.694;23.286;2023-05-07T10:37:29;1.88;;;1.38;;
69523;SDS011;56723;42.694;23.286;2023-05-07T10:39:57;7.13;;;2.23;;
69523;SDS011;56723;42.694;23.286;2023-05-07T10:42:26;2.40;;;1.88;;
69523;SDS011;56723;42.694;23.286;2023-05-07T10:44:55;3.17;;;2.47;;
69523;SDS011;56723;42.694;23.286;2023-05-07T10:47:26;1.73;;;1.55;;
69523;SDS011;56723;42.694;23.286;2023-05-07T10:52:32;3.75;;;1.50;;
69523;SDS011;56723;42.694;23.286;2023-05-07T11:01:09;2.90;;;1.67;;
69523;SDS011;56723;42.694;23.286;2023-05-07T11:15:12;2.20;;;1.50;;
69523;SDS011;56723;42.694;23.286;2023-05-07T11:17:53;2.78;;;1.70;;
69523;SDS011;56723;42.694;23.286;2023-05-07T11:26:28;3.13;;;1.90;;
69523;SDS011;56723;42.694;23.286;2023-05-07T11:28:57;3.90;;;1.60;;
69523;SDS011;56723;42.694;23.286;2023-05-07T11:31:27;3.60;;;1.38;;
69523;SDS011;56723;42.694;23.286;2023-05-07T11:33:58;2.00;;;1.60;;
69523;SDS011;56723;42.694;23.286;2023-05-07T11:36:31;1.60;;;1.15;;
69523;SDS011;56723;42.694;23.286;2023-05-07T11:39:01;7.65;;;1.20;;
69523;SDS011;56723;42.694;23.286;2023-05-07T11:41:35;4.22;;;1.00;;
69523;SDS011;56723;42.694;23.286;2023-05-07T11:44:05;3.60;;;1.40;;
69523;SDS011;56723;42.694;23.286;2023-05-07T11:46:32;2.20;;;1.23;;
69523;SDS011;56723;42.694;23.286;2023-05-07T11:49:00;1.23;;;1.08;;
69523;SDS011;56723;42.694;23.286;2023-05-07T11:51:27;3.22;;;1.42;;
69523;SDS011;56723;42.694;23.286;2023-05-07T11:53:54;5.55;;;1.10;;
69523;SDS011;56723;42.694;23.286;2023-05-07T11:56:21;2.75;;;1.45;;
69523;SDS011;56723;42.694;23.286;2023-05-07T11:58:48;4.47;;;1.48;;
69523;SDS011;56723;42.694;23.286;2023-05-07T12:01:16;3.80;;;1.15;;
69523;SDS011;56723;42.694;23.286;2023-05-07T12:03:43;1.45;;;0.80;;
69523;SDS011;56723;42.694;23.286;2023-05-07T12:06:15;2.35;;;0.60;;
69523;SDS011;56723;42.694;23.286;2023-05-07T12:08:43;1.42;;;0.65;;
69523;SDS011;56723;42.694;23.286;2023-05-07T12:11:14;1.75;;;1.17;;
69523;SDS011;56723;42.694;23.286;2023-05-07T12:13:44;2.38;;;0.65;;
69523;SDS011;56723;42.694;23.286;2023-05-07T12:16:11;5.32;;;0.88;;
69523;SDS011;56723;42.694;23.286;2023-05-07T12:18:39;1.60;;;0.70;;
69523;SDS011;56723;42.694;23.286;2023-05-07T12:21:07;1.83;;;0.70;;
69523;SDS011;56723;42.694;23.286;2023-05-07T12:23:36;1.80;;;0.77;;
69523;SDS011;56723;42.694;23.286;2023-05-07T12:26:03;3.00;;;1.48;;
69523;SDS011;56723;42.694;23.286;2023-05-07T12:28:36;2.42;;;0.93;;
69523;SDS011;56723;42.694;23.286;2023-05-07T12:31:05;1.83;;;0.85;;
69523;SDS011;56723;42.694;23.286;2023-05-07T12:33:33;1.92;;;1.00;;
69523;SDS011;56723;42.694;23.286;2023-05-07T12:36:03;2.65;;;0.80;;
69523;SDS011;56723;42.694;23.286;2023-05-07T12:38:34;2.50;;;0.68;;
69523;SDS011;56723;42.694;23.286;2023-05-07T12:41:02;1.38;;;1.20;;
69523;SDS011;56723;42.694;23.286;2023-05-07T12:43:29;3.63;;;0.90;;
69523;SDS011;56723;42.694;23.286;2023-05-07T12:45:57;1.52;;;0.90;;
69523;SDS011;56723;42.694;23.286;2023-05-07T12:48:28;2.50;;;1.20;;
69523;SDS011;56723;42.694;23.286;2023-05-07T12:50:58;1.65;;;1.30;;
69523;SDS011;56723;42.694;23.286;2023-05-07T12:53:26;2.10;;;1.00;;
69523;SDS011;56723;42.694;23.286;2023-05-07T12:55:55;3.13;;;1.40;;
69523;SDS011;56723;42.694;23.286;2023-05-07T12:58:25;1.88;;;0.88;;
69523;SDS011;56723;42.694;23.286;2023-05-07T13:00:52;2.30;;;0.90;;
69523;SDS011;56723;42.694;23.286;2023-05-07T13:03:21;2.83;;;1.10;;
69523;SDS011;56723;42.694;23.286;2023-05-07T13:05:59;1.30;;;0.73;;
69523;SDS011;56723;42.694;23.286;2023-05-07T13:08:32;1.33;;;0.98;;
69523;SDS011;56723;42.694;23.286;2023-05-07T13:11:01;3.60;;;1.50;;
69523;SDS011;56723;42.694;23.286;2023-05-07T13:13:33;3.22;;;1.17;;
69523;SDS011;56723;42.694;23.286;2023-05-07T13:16:02;2.92;;;1.08;;
69523;SDS011;56723;42.694;23.286;2023-05-07T13:18:30;2.22;;;1.10;;
69523;SDS011;56723;42.694;23.286;2023-05-07T13:20:59;1.70;;;1.00;;
69523;SDS011;56723;42.694;23.286;2023-05-07T13:23:27;2.63;;;0.77;;
69523;SDS011;56723;42.694;23.286;2023-05-07T13:25:54;3.80;;;1.00;;
69523;SDS011;56723;42.694;23.286;2023-05-07T13:28:23;3.28;;;1.00;;
69523;SDS011;56723;42.694;23.286;2023-05-07T13:30:50;1.98;;;0.68;;
69523;SDS011;56723;42.694;23.286;2023-05-07T13:33:18;2.65;;;0.68;;
69523;SDS011;56723;42.694;23.286;2023-05-07T13:35:45;1.63;;;0.52;;
69523;SDS011;56723;42.694;23.286;2023-05-07T13:38:12;4.38;;;1.35;;
69523;SDS011;56723;42.694;23.286;2023-05-07T13:40:39;3.08;;;1.08;;
69523;SDS011;56723;42.694;23.286;2023-05-07T13:43:06;1.52;;;0.85;;
69523;SDS011;56723;42.694;23.286;2023-05-07T13:45:33;1.60;;;0.80;;
69523;SDS011;56723;42.694;23.286;2023-05-07T13:48:00;1.60;;;0.90;;
69523;SDS011;56723;42.694;23.286;2023-05-07T13:50:27;2.55;;;0.80;;
69523;SDS011;56723;42.694;23.286;2023-05-07T13:52:56;3.65;;;0.98;;
69523;SDS011;56723;42.694;23.286;2023-05-07T13:55:23;2.08;;;0.85;;
69523;SDS011;56723;42.694;23.286;2023-05-07T13:57:57;3.92;;;1.13;;
69523;SDS011;56723;42.694;23.286;2023-05-07T14:00:26;4.03;;;1.30;;
69523;SDS011;56723;42.694;23.286;2023-05-07T14:02:54;1.20;;;0.85;;
69523;SDS011;56723;42.694;23.286;2023-05-07T14:05:22;1.80;;;0.77;;
69523;SDS011;56723;42.694;23.286;2023-05-07T14:07:55;1.45;;;0.82;;
69523;SDS011;56723;42.694;23.286;2023-05-07T14:10:23;1.35;;;0.77;;
69523;SDS011;56723;42.694;23.286;2023-05-07T14:12:51;1.52;;;0.73;;
69523;SDS011;56723;42.694;23.286;2023-05-07T14:15:19;2.13;;;1.20;;
69523;SDS011;56723;42.694;23.286;2023-05-07T14:17:46;1.85;;;1.20;;
69523;SDS011;56723;42.694;23.286;2023-05-07T14:20:14;4.78;;;0.85;;
69523;SDS011;56723;42.694;23.286;2023-05-07T14:22:41;1.77;;;1.00;;
69523;SDS011;56723;42.694;23.286;2023-05-07T14:25:08;2.28;;;0.90;;
69523;SDS011;56723;42.694;23.286;2023-05-07T14:27:41;3.05;;;1.10;;
69523;SDS011;56723;42.694;23.286;2023-05-07T14:30:08;4.32;;;1.35;;
69523;SDS011;56723;42.694;23.286;2023-05-07T14:32:36;2.40;;;1.00;;
69523;SDS011;56723;42.694;23.286;2023-05-07T14:35:03;2.75;;;1.45;;
69523;SDS011;56723;42.694;23.286;2023-05-07T14:37:31;1.77;;;0.90;;
69523;SDS011;56723;42.694;23.286;2023-05-07T14:39:58;2.60;;;0.98;;
69523;SDS011;56723;42.694;23.286;2023-05-07T14:42:25;5.03;;;2.45;;
69523;SDS011;56723;42.694;23.286;2023-05-07T14:44:52;1.45;;;0.93;;
69523;SDS011;56723;42.694;23.286;2023-05-07T14:47:19;2.17;;;0.93;;
69523;SDS011;56723;42.694;23.286;2023-05-07T14:49:46;3.45;;;0.70;;
69523;SDS011;56723;42.694;23.286;2023-05-07T14:52:13;1.90;;;0.73;;
69523;SDS011;56723;42.694;23.286;2023-05-07T14:54:40;2.55;;;0.85;;
69523;SDS011;56723;42.694;23.286;2023-05-07T14:57:08;2.13;;;1.23;;
69523;SDS011;56723;42.694;23.286;2023-05-07T14:59:37;3.60;;;2.70;;
69523;SDS011;56723;42.694;23.286;2023-05-07T15:02:05;1.73;;;0.82;;
69523;SDS011;56723;42.694;23.286;2023-05-07T15:04:36;1.35;;;1.02;;
69523;SDS011;56723;42.694;23.286;2023-05-07T15:09:31;1.75;;;1.20;;
69523;SDS011;56723;42.694;23.286;2023-05-07T15:11:58;1.85;;;0.77;;
69523;SDS011;56723;42.694;23.286;2023-05-07T15:14:25;3.03;;;1.20;;
69523;SDS011;56723;42.694;23.286;2023-05-07T15:16:53;2.28;;;1.50;;
69523;SDS011;56723;42.694;23.286;2023-05-07T15:19:24;3.88;;;1.30;;
69523;SDS011;56723;42.694;23.286;2023-05-07T15:21:56;1.65;;;1.00;;
69523;SDS011;56723;42.694;23.286;2023-05-07T15:24:26;2.40;;;1.10;;
69523;SDS011;56723;42.694;23.286;2023-05-07T15:26:53;2.97;;;1.00;;
69523;SDS011;56723;42.694;23.286;2023-05-07T15:29:26;2.95;;;1.10;;
69523;SDS011;56723;42.694;23.286;2023-05-07T15:32:06;2.22;;;0.70;;
69523;SDS011;56723;42.694;23.286;2023-05-07T15:34:46;2.05;;;1.00;;
69523;SDS011;56723;42.694;23.286;2023-05-07T15:37:13;1.35;;;0.73;;
69523;SDS011;56723;42.694;23.286;2023-05-07T15:39:40;3.15;;;1.08;;
69523;SDS011;56723;42.694;23.286;2023-05-07T15:42:07;2.83;;;1.17;;
69523;SDS011;56723;42.694;23.286;2023-05-07T15:44:34;2.22;;;1.10;;
69523;SDS011;56723;42.694;23.286;2023-05-07T15:47:01;2.30;;;1.20;;
69523;SDS011;56723;42.694;23.286;2023-05-07T15:49:28;2.80;;;1.48;;
69523;SDS011;56723;42.694;23.286;2023-05-07T15:51:55;3.28;;;1.45;;
69523;SDS011;56723;42.694;23.286;2023-05-07T15:54:23;3.17;;;1.35;;
69523;SDS011;56723;42.694;23.286;2023-05-07T15:56:50;2.75;;;1.02;;
69523;SDS011;56723;42.694;23.286;2023-05-07T15:59:17;4.07;;;1.15;;
69523;SDS011;56723;42.694;23.286;2023-05-07T16:01:44;1.80;;;1.10;;
69523;SDS011;56723;42.694;23.286;2023-05-07T16:04:11;3.17;;;1.20;;
69523;SDS011;56723;42.694;23.286;2023-05-07T16:06:38;1.27;;;1.13;;
69523;SDS011;56723;42.694;23.286;2023-05-07T16:09:05;2.45;;;0.90;;
69523;SDS011;56723;42.694;23.286;2023-05-07T16:11:32;1.98;;;0.70;;
69523;SDS011;56723;42.694;23.286;2023-05-07T16:13:59;2.83;;;1.40;;
69523;SDS011;56723;42.694;23.286;2023-05-07T16:16:26;5.35;;;1.20;;
69523;SDS011;56723;42.694;23.286;2023-05-07T16:18:55;3.25;;;1.63;;
69523;SDS011;56723;42.694;23.286;2023-05-07T16:21:22;3.70;;;1.92;;
69523;SDS011;56723;42.694;23.286;2023-05-07T16:23:49;3.05;;;1.25;;
69523;SDS011;56723;42.694;23.286;2023-05-07T16:26:17;3.67;;;1.40;;
69523;SDS011;56723;42.694;23.286;2023-05-07T16:28:44;2.47;;;1.40;;
69523;SDS011;56723;42.694;23.286;2023-05-07T16:31:11;2.38;;;1.02;;
69523;SDS011;56723;42.694;23.286;2023-05-07T16:33:38;5.65;;;1.70;;
69523;SDS011;56723;42.694;23.286;2023-05-07T16:36:05;2.83;;;1.25;;
69523;SDS011;56723;42.694;23.286;2023-05-07T16:38:32;2.10;;;1.02;;
69523;SDS011;56723;42.694;23.286;2023-05-07T16:41:00;5.25;;;1.05;;
69523;SDS011;56723;42.694;23.286;2023-05-07T16:43:27;4.57;;;1.73;;
69523;SDS011;56723;42.694;23.286;2023-05-07T16:45:54;1.98;;;1.48;;
69523;SDS011;56723;42.694;23.286;2023-05-07T16:48:21;3.42;;;1.50;;
69523;SDS011;56723;42.694;23.286;2023-05-07T16:50:48;4.68;;;1.40;;
69523;SDS011;56723;42.694;23.286;2023-05-07T16:53:15;5.35;;;1.35;;
69523;SDS011;56723;42.694;23.286;2023-05-07T16:55:43;2.53;;;1.48;;
69523;SDS011;56723;42.694;23.286;2023-05-07T16:58:10;3.80;;;1.67;;
69523;SDS011;56723;42.694;23.286;2023-05-07T17:00:37;3.23;;;1.63;;
69523;SDS011;56723;42.694;23.286;2023-05-07T17:03:16;3.42;;;1.80;;
69523;SDS011;56723;42.694;23.286;2023-05-07T17:05:44;3.25;;;1.48;;
69523;SDS011;56723;42.694;23.286;2023-05-07T17:08:11;2.15;;;1.65;;
69523;SDS011;56723;42.694;23.286;2023-05-07T17:13:06;3.38;;;1.38;;
69523;SDS011;56723;42.694;23.286;2023-05-07T17:15:34;2.83;;;1.48;;
69523;SDS011;56723;42.694;23.286;2023-05-07T17:18:01;2.42;;;1.80;;
